OSDI/DAM METAR and TAF weather

Enter ICAO airport designator
Station Type Date Time Source
OSDI METAR 2019/04/25 08:00 UTC NOAA

OSDI 250800Z 27002KT CAVOK 20/02 Q1025


Station Type Date Time Source
OSDI Decoded METAR 2019/04/25 08:00 UTC NOAA

Damascus Int. Airport, Syria (OSDI) 33-25N 036-31E 609M
Apr 25, 2019 - 04:00 AM EDT / 2019.04.25 0800 UTC
Wind: from the W (270 degrees) at 2 MPH (2 KT):0
Visibility: greater than 7 mile(s):0
Temperature: 68 F (20 C)
Dew Point: 35 F (2 C)
Relative Humidity: 30%
Pressure (altimeter): 30.27 in. Hg (1025 hPa)
ob: OSDI 250800Z 27002KT CAVOK 20/02 Q1025
cycle: 8

Station Type Date Time Source
OSDI TAF 2019/04/25 06:54 UTC NOAA

TAF TAF OSDI 250400Z 2506/2612 12008KT 9999 FEW030

Example: see airport list